sensor_id;sensor_type;location;lat;lon;timestamp;P1;durP1;ratioP1;P2;durP2;ratioP2
56752;SDS011;42627;42.646;23.642;2023-04-03T00:00:51;4.28;;;1.90;;
56752;SDS011;42627;42.646;23.642;2023-04-03T00:02:52;4.05;;;2.22;;
56752;SDS011;42627;42.646;23.642;2023-04-03T00:04:53;5.43;;;2.30;;
56752;SDS011;42627;42.646;23.642;2023-04-03T00:06:54;6.85;;;2.40;;
56752;SDS011;42627;42.646;23.642;2023-04-03T00:08:55;4.07;;;2.22;;
56752;SDS011;42627;42.646;23.642;2023-04-03T00:10:56;3.70;;;1.75;;
56752;SDS011;42627;42.646;23.642;2023-04-03T00:12:57;3.17;;;1.48;;
56752;SDS011;42627;42.646;23.642;2023-04-03T00:14:58;3.28;;;1.65;;
56752;SDS011;42627;42.646;23.642;2023-04-03T00:16:59;3.08;;;1.50;;
56752;SDS011;42627;42.646;23.642;2023-04-03T00:19:00;6.32;;;1.60;;
56752;SDS011;42627;42.646;23.642;2023-04-03T00:21:01;3.35;;;1.40;;
56752;SDS011;42627;42.646;23.642;2023-04-03T00:23:02;3.55;;;1.77;;
56752;SDS011;42627;42.646;23.642;2023-04-03T00:25:03;2.88;;;1.50;;
56752;SDS011;42627;42.646;23.642;2023-04-03T00:27:05;4.10;;;1.83;;
56752;SDS011;42627;42.646;23.642;2023-04-03T00:29:06;7.05;;;2.50;;
56752;SDS011;42627;42.646;23.642;2023-04-03T00:31:07;6.90;;;2.50;;
56752;SDS011;42627;42.646;23.642;2023-04-03T00:33:09;26.42;;;8.50;;
56752;SDS011;42627;42.646;23.642;2023-04-03T00:35:11;42.88;;;12.15;;
56752;SDS011;42627;42.646;23.642;2023-04-03T00:37:15;9.38;;;3.55;;
56752;SDS011;42627;42.646;23.642;2023-04-03T00:39:16;6.68;;;2.20;;
56752;SDS011;42627;42.646;23.642;2023-04-03T00:41:17;3.20;;;2.00;;
56752;SDS011;42627;42.646;23.642;2023-04-03T00:43:20;3.38;;;1.65;;
56752;SDS011;42627;42.646;23.642;2023-04-03T00:45:26;3.85;;;1.88;;
56752;SDS011;42627;42.646;23.642;2023-04-03T00:47:27;3.10;;;2.38;;
56752;SDS011;42627;42.646;23.642;2023-04-03T00:49:29;4.10;;;2.38;;
56752;SDS011;42627;42.646;23.642;2023-04-03T00:51:30;7.15;;;2.80;;
56752;SDS011;42627;42.646;23.642;2023-04-03T00:53:33;3.40;;;2.08;;
56752;SDS011;42627;42.646;23.642;2023-04-03T00:55:36;3.95;;;2.10;;
56752;SDS011;42627;42.646;23.642;2023-04-03T00:57:38;3.20;;;1.92;;
56752;SDS011;42627;42.646;23.642;2023-04-03T00:59:40;4.70;;;2.58;;
56752;SDS011;42627;42.646;23.642;2023-04-03T01:01:44;7.28;;;2.83;;
56752;SDS011;42627;42.646;23.642;2023-04-03T01:03:50;4.88;;;2.47;;
56752;SDS011;42627;42.646;23.642;2023-04-03T01:05:51;8.95;;;3.90;;
56752;SDS011;42627;42.646;23.642;2023-04-03T01:07:52;12.25;;;5.40;;
56752;SDS011;42627;42.646;23.642;2023-04-03T01:09:56;15.23;;;8.32;;
56752;SDS011;42627;42.646;23.642;2023-04-03T01:14:33;23.73;;;12.80;;
56752;SDS011;42627;42.646;23.642;2023-04-03T01:16:34;58.00;;;24.42;;
56752;SDS011;42627;42.646;23.642;2023-04-03T01:27:37;28.85;;;14.13;;
56752;SDS011;42627;42.646;23.642;2023-04-03T01:29:38;24.27;;;11.82;;
56752;SDS011;42627;42.646;23.642;2023-04-03T01:31:44;13.48;;;7.00;;
56752;SDS011;42627;42.646;23.642;2023-04-03T01:33:51;8.63;;;4.45;;
56752;SDS011;42627;42.646;23.642;2023-04-03T01:35:52;5.65;;;3.30;;
56752;SDS011;42627;42.646;23.642;2023-04-03T01:37:53;3.97;;;2.15;;
56752;SDS011;42627;42.646;23.642;2023-04-03T01:39:54;4.55;;;2.15;;
56752;SDS011;42627;42.646;23.642;2023-04-03T01:41:55;5.45;;;1.92;;
56752;SDS011;42627;42.646;23.642;2023-04-03T01:43:56;16.73;;;7.15;;
56752;SDS011;42627;42.646;23.642;2023-04-03T01:45:59;14.70;;;4.75;;
56752;SDS011;42627;42.646;23.642;2023-04-03T01:48:06;14.98;;;6.18;;
56752;SDS011;42627;42.646;23.642;2023-04-03T01:50:07;17.70;;;5.70;;
56752;SDS011;42627;42.646;23.642;2023-04-03T01:52:09;11.65;;;5.28;;
56752;SDS011;42627;42.646;23.642;2023-04-03T01:54:10;10.02;;;3.38;;
56752;SDS011;42627;42.646;23.642;2023-04-03T01:56:11;6.18;;;3.13;;
56752;SDS011;42627;42.646;23.642;2023-04-03T01:58:27;14.68;;;7.10;;
56752;SDS011;42627;42.646;23.642;2023-04-03T02:02:54;9.07;;;4.28;;
56752;SDS011;42627;42.646;23.642;2023-04-03T02:04:55;13.88;;;8.00;;
56752;SDS011;42627;42.646;23.642;2023-04-03T02:06:56;22.95;;;10.30;;
56752;SDS011;42627;42.646;23.642;2023-04-03T02:08:57;5.03;;;2.28;;
56752;SDS011;42627;42.646;23.642;2023-04-03T02:10:58;2.65;;;1.60;;
56752;SDS011;42627;42.646;23.642;2023-04-03T02:12:59;2.45;;;1.45;;
56752;SDS011;42627;42.646;23.642;2023-04-03T02:15:00;3.95;;;1.98;;
56752;SDS011;42627;42.646;23.642;2023-04-03T02:19:12;4.93;;;2.10;;
56752;SDS011;42627;42.646;23.642;2023-04-03T02:21:13;5.15;;;2.50;;
56752;SDS011;42627;42.646;23.642;2023-04-03T02:23:14;3.58;;;2.60;;
56752;SDS011;42627;42.646;23.642;2023-04-03T02:25:15;3.63;;;2.20;;
56752;SDS011;42627;42.646;23.642;2023-04-03T02:27:20;2.92;;;1.70;;
56752;SDS011;42627;42.646;23.642;2023-04-03T02:29:40;6.30;;;2.40;;
56752;SDS011;42627;42.646;23.642;2023-04-03T02:31:41;3.67;;;1.95;;
56752;SDS011;42627;42.646;23.642;2023-04-03T02:33:42;16.05;;;6.97;;
56752;SDS011;42627;42.646;23.642;2023-04-03T02:35:43;4.00;;;2.40;;
56752;SDS011;42627;42.646;23.642;2023-04-03T02:37:46;6.45;;;3.45;;
56752;SDS011;42627;42.646;23.642;2023-04-03T02:39:47;4.03;;;2.40;;
56752;SDS011;42627;42.646;23.642;2023-04-03T02:41:48;4.45;;;2.78;;
56752;SDS011;42627;42.646;23.642;2023-04-03T02:43:49;5.22;;;3.03;;
56752;SDS011;42627;42.646;23.642;2023-04-03T02:45:50;5.45;;;2.70;;
56752;SDS011;42627;42.646;23.642;2023-04-03T02:47:51;5.55;;;2.90;;
56752;SDS011;42627;42.646;23.642;2023-04-03T02:49:52;6.32;;;2.13;;
56752;SDS011;42627;42.646;23.642;2023-04-03T02:51:53;5.07;;;2.00;;
56752;SDS011;42627;42.646;23.642;2023-04-03T02:53:54;3.05;;;1.65;;
56752;SDS011;42627;42.646;23.642;2023-04-03T02:55:55;2.15;;;1.50;;
56752;SDS011;42627;42.646;23.642;2023-04-03T02:57:59;2.08;;;1.40;;
56752;SDS011;42627;42.646;23.642;2023-04-03T03:00:00;2.90;;;1.80;;
56752;SDS011;42627;42.646;23.642;2023-04-03T03:02:11;9.75;;;5.10;;
56752;SDS011;42627;42.646;23.642;2023-04-03T03:04:11;12.93;;;6.50;;
56752;SDS011;42627;42.646;23.642;2023-04-03T03:06:17;14.63;;;6.05;;
56752;SDS011;42627;42.646;23.642;2023-04-03T03:10:20;5.10;;;2.83;;
56752;SDS011;42627;42.646;23.642;2023-04-03T03:12:21;4.45;;;2.38;;
56752;SDS011;42627;42.646;23.642;2023-04-03T03:14:23;6.05;;;3.47;;
56752;SDS011;42627;42.646;23.642;2023-04-03T03:18:38;8.07;;;3.65;;
56752;SDS011;42627;42.646;23.642;2023-04-03T03:20:39;4.63;;;2.05;;
56752;SDS011;42627;42.646;23.642;2023-04-03T03:22:40;5.32;;;2.20;;
56752;SDS011;42627;42.646;23.642;2023-04-03T03:24:41;2.88;;;1.98;;
56752;SDS011;42627;42.646;23.642;2023-04-03T03:26:43;2.92;;;1.70;;
56752;SDS011;42627;42.646;23.642;2023-04-03T03:28:44;2.25;;;1.70;;
56752;SDS011;42627;42.646;23.642;2023-04-03T03:31:04;3.67;;;1.60;;
56752;SDS011;42627;42.646;23.642;2023-04-03T03:33:07;4.15;;;1.67;;
56752;SDS011;42627;42.646;23.642;2023-04-03T03:35:08;2.08;;;1.75;;
56752;SDS011;42627;42.646;23.642;2023-04-03T03:37:09;3.28;;;2.03;;
56752;SDS011;42627;42.646;23.642;2023-04-03T03:39:10;4.30;;;1.90;;
56752;SDS011;42627;42.646;23.642;2023-04-03T03:41:11;7.32;;;3.55;;
56752;SDS011;42627;42.646;23.642;2023-04-03T03:43:12;8.13;;;4.30;;
56752;SDS011;42627;42.646;23.642;2023-04-03T03:45:13;46.05;;;19.67;;
56752;SDS011;42627;42.646;23.642;2023-04-03T03:47:14;76.57;;;29.80;;
56752;SDS011;42627;42.646;23.642;2023-04-03T03:49:15;31.02;;;13.75;;
56752;SDS011;42627;42.646;23.642;2023-04-03T03:51:16;7.15;;;4.90;;
56752;SDS011;42627;42.646;23.642;2023-04-03T03:53:17;15.52;;;7.40;;
56752;SDS011;42627;42.646;23.642;2023-04-03T03:55:19;11.60;;;5.93;;
56752;SDS011;42627;42.646;23.642;2023-04-03T03:57:20;8.45;;;3.97;;
56752;SDS011;42627;42.646;23.642;2023-04-03T03:59:21;7.22;;;3.92;;
56752;SDS011;42627;42.646;23.642;2023-04-03T04:01:37;10.90;;;6.43;;
56752;SDS011;42627;42.646;23.642;2023-04-03T04:03:50;13.57;;;6.55;;
56752;SDS011;42627;42.646;23.642;2023-04-03T04:06:04;12.52;;;6.28;;
56752;SDS011;42627;42.646;23.642;2023-04-03T04:08:05;8.68;;;4.63;;
56752;SDS011;42627;42.646;23.642;2023-04-03T04:10:06;7.68;;;3.28;;
56752;SDS011;42627;42.646;23.642;2023-04-03T04:12:07;5.18;;;2.65;;
56752;SDS011;42627;42.646;23.642;2023-04-03T04:14:08;5.30;;;2.50;;
56752;SDS011;42627;42.646;23.642;2023-04-03T04:16:10;7.07;;;3.92;;
56752;SDS011;42627;42.646;23.642;2023-04-03T04:18:11;10.82;;;5.35;;
56752;SDS011;42627;42.646;23.642;2023-04-03T04:20:12;10.88;;;5.20;;
56752;SDS011;42627;42.646;23.642;2023-04-03T04:22:14;9.93;;;4.82;;
56752;SDS011;42627;42.646;23.642;2023-04-03T04:24:15;10.43;;;4.53;;
56752;SDS011;42627;42.646;23.642;2023-04-03T04:26:16;10.52;;;5.18;;
56752;SDS011;42627;42.646;23.642;2023-04-03T04:28:17;8.48;;;5.25;;
56752;SDS011;42627;42.646;23.642;2023-04-03T04:30:18;9.40;;;5.60;;
56752;SDS011;42627;42.646;23.642;2023-04-03T04:32:25;9.43;;;4.80;;
56752;SDS011;42627;42.646;23.642;2023-04-03T04:34:47;10.60;;;5.97;;
56752;SDS011;42627;42.646;23.642;2023-04-03T04:36:48;14.25;;;5.88;;
56752;SDS011;42627;42.646;23.642;2023-04-03T04:38:49;15.07;;;6.72;;
56752;SDS011;42627;42.646;23.642;2023-04-03T04:40:52;21.50;;;9.90;;
56752;SDS011;42627;42.646;23.642;2023-04-03T04:42:53;23.05;;;9.23;;
56752;SDS011;42627;42.646;23.642;2023-04-03T04:44:55;19.73;;;9.40;;
56752;SDS011;42627;42.646;23.642;2023-04-03T04:46:56;15.57;;;8.85;;
56752;SDS011;42627;42.646;23.642;2023-04-03T04:48:57;19.30;;;9.77;;
56752;SDS011;42627;42.646;23.642;2023-04-03T04:51:01;20.80;;;10.13;;
56752;SDS011;42627;42.646;23.642;2023-04-03T04:53:02;8.50;;;5.32;;
56752;SDS011;42627;42.646;23.642;2023-04-03T04:55:04;9.07;;;5.53;;
56752;SDS011;42627;42.646;23.642;2023-04-03T04:57:05;10.82;;;5.07;;
56752;SDS011;42627;42.646;23.642;2023-04-03T04:59:06;9.38;;;4.38;;
56752;SDS011;42627;42.646;23.642;2023-04-03T05:01:08;12.52;;;6.18;;
56752;SDS011;42627;42.646;23.642;2023-04-03T05:03:11;14.63;;;7.03;;
56752;SDS011;42627;42.646;23.642;2023-04-03T05:05:23;13.57;;;6.90;;
56752;SDS011;42627;42.646;23.642;2023-04-03T05:07:24;15.98;;;6.95;;
56752;SDS011;42627;42.646;23.642;2023-04-03T05:09:25;25.95;;;8.75;;
56752;SDS011;42627;42.646;23.642;2023-04-03T05:11:26;17.38;;;6.43;;
56752;SDS011;42627;42.646;23.642;2023-04-03T05:13:26;22.10;;;8.68;;
56752;SDS011;42627;42.646;23.642;2023-04-03T05:15:27;12.43;;;6.07;;
56752;SDS011;42627;42.646;23.642;2023-04-03T05:17:28;17.98;;;7.43;;
56752;SDS011;42627;42.646;23.642;2023-04-03T05:19:29;32.15;;;10.82;;
56752;SDS011;42627;42.646;23.642;2023-04-03T05:21:35;26.05;;;11.02;;
56752;SDS011;42627;42.646;23.642;2023-04-03T05:25:37;26.48;;;12.10;;
56752;SDS011;42627;42.646;23.642;2023-04-03T05:27:38;15.23;;;5.70;;
56752;SDS011;42627;42.646;23.642;2023-04-03T05:29:39;9.80;;;5.03;;
56752;SDS011;42627;42.646;23.642;2023-04-03T05:31:43;12.77;;;4.47;;
56752;SDS011;42627;42.646;23.642;2023-04-03T05:34:00;11.00;;;4.82;;
56752;SDS011;42627;42.646;23.642;2023-04-03T05:36:02;9.07;;;3.42;;
56752;SDS011;42627;42.646;23.642;2023-04-03T05:38:03;5.07;;;2.85;;
56752;SDS011;42627;42.646;23.642;2023-04-03T05:40:05;5.00;;;2.50;;
56752;SDS011;42627;42.646;23.642;2023-04-03T05:42:07;5.00;;;2.63;;
56752;SDS011;42627;42.646;23.642;2023-04-03T05:44:08;6.13;;;2.80;;
56752;SDS011;42627;42.646;23.642;2023-04-03T05:46:13;5.82;;;2.40;;
56752;SDS011;42627;42.646;23.642;2023-04-03T05:48:14;5.63;;;2.60;;
56752;SDS011;42627;42.646;23.642;2023-04-03T05:50:15;7.05;;;3.58;;
56752;SDS011;42627;42.646;23.642;2023-04-03T05:52:18;7.95;;;2.90;;
56752;SDS011;42627;42.646;23.642;2023-04-03T05:54:25;7.97;;;3.50;;
56752;SDS011;42627;42.646;23.642;2023-04-03T05:56:26;6.60;;;3.60;;
56752;SDS011;42627;42.646;23.642;2023-04-03T05:58:27;12.80;;;5.35;;
56752;SDS011;42627;42.646;23.642;2023-04-03T06:00:28;9.98;;;5.25;;
56752;SDS011;42627;42.646;23.642;2023-04-03T06:02:29;12.95;;;5.95;;
56752;SDS011;42627;42.646;23.642;2023-04-03T06:04:31;10.98;;;4.97;;
56752;SDS011;42627;42.646;23.642;2023-04-03T06:06:52;6.80;;;4.35;;
56752;SDS011;42627;42.646;23.642;2023-04-03T06:08:53;6.47;;;3.42;;
56752;SDS011;42627;42.646;23.642;2023-04-03T06:10:54;14.60;;;6.03;;
56752;SDS011;42627;42.646;23.642;2023-04-03T06:12:56;13.38;;;8.93;;
56752;SDS011;42627;42.646;23.642;2023-04-03T06:14:57;9.52;;;5.25;;
56752;SDS011;42627;42.646;23.642;2023-04-03T06:21:25;7.60;;;3.97;;
56752;SDS011;42627;42.646;23.642;2023-04-03T06:23:26;9.25;;;3.95;;
56752;SDS011;42627;42.646;23.642;2023-04-03T06:25:27;11.10;;;5.82;;
56752;SDS011;42627;42.646;23.642;2023-04-03T06:27:28;10.32;;;4.68;;
56752;SDS011;42627;42.646;23.642;2023-04-03T06:29:29;7.15;;;4.15;;
56752;SDS011;42627;42.646;23.642;2023-04-03T06:31:30;10.55;;;5.55;;
56752;SDS011;42627;42.646;23.642;2023-04-03T06:33:32;7.75;;;5.03;;
56752;SDS011;42627;42.646;23.642;2023-04-03T06:35:41;12.07;;;6.38;;
56752;SDS011;42627;42.646;23.642;2023-04-03T06:37:42;8.80;;;5.57;;
56752;SDS011;42627;42.646;23.642;2023-04-03T06:39:43;8.82;;;5.40;;
56752;SDS011;42627;42.646;23.642;2023-04-03T06:41:45;6.70;;;3.95;;
56752;SDS011;42627;42.646;23.642;2023-04-03T06:43:46;7.53;;;3.70;;
56752;SDS011;42627;42.646;23.642;2023-04-03T06:46:02;8.15;;;4.63;;
56752;SDS011;42627;42.646;23.642;2023-04-03T06:48:07;8.77;;;4.85;;
56752;SDS011;42627;42.646;23.642;2023-04-03T06:50:17;10.32;;;4.30;;
56752;SDS011;42627;42.646;23.642;2023-04-03T06:52:18;13.27;;;5.28;;
56752;SDS011;42627;42.646;23.642;2023-04-03T06:54:20;15.20;;;5.60;;
56752;SDS011;42627;42.646;23.642;2023-04-03T06:56:21;11.75;;;5.75;;
56752;SDS011;42627;42.646;23.642;2023-04-03T06:58:23;14.35;;;5.75;;
56752;SDS011;42627;42.646;23.642;2023-04-03T07:00:24;12.35;;;5.50;;
56752;SDS011;42627;42.646;23.642;2023-04-03T07:02:26;11.65;;;5.78;;
56752;SDS011;42627;42.646;23.642;2023-04-03T07:04:27;11.73;;;5.65;;
56752;SDS011;42627;42.646;23.642;2023-04-03T07:06:39;15.73;;;6.00;;
56752;SDS011;42627;42.646;23.642;2023-04-03T07:08:42;15.18;;;6.65;;
56752;SDS011;42627;42.646;23.642;2023-04-03T07:10:44;10.80;;;5.78;;
56752;SDS011;42627;42.646;23.642;2023-04-03T07:12:45;12.85;;;6.03;;
56752;SDS011;42627;42.646;23.642;2023-04-03T07:14:46;10.00;;;5.07;;
56752;SDS011;42627;42.646;23.642;2023-04-03T07:17:00;13.25;;;4.95;;
56752;SDS011;42627;42.646;23.642;2023-04-03T07:19:14;11.73;;;5.35;;
56752;SDS011;42627;42.646;23.642;2023-04-03T07:21:15;15.02;;;6.25;;
56752;SDS011;42627;42.646;23.642;2023-04-03T07:23:16;17.92;;;7.70;;
56752;SDS011;42627;42.646;23.642;2023-04-03T07:25:17;11.77;;;4.57;;
56752;SDS011;42627;42.646;23.642;2023-04-03T07:27:18;9.27;;;5.32;;
56752;SDS011;42627;42.646;23.642;2023-04-03T07:31:30;9.48;;;5.32;;
56752;SDS011;42627;42.646;23.642;2023-04-03T07:33:31;10.55;;;4.43;;
56752;SDS011;42627;42.646;23.642;2023-04-03T07:35:33;8.35;;;4.35;;
56752;SDS011;42627;42.646;23.642;2023-04-03T07:37:34;10.20;;;4.47;;
56752;SDS011;42627;42.646;23.642;2023-04-03T07:39:35;9.65;;;4.68;;
56752;SDS011;42627;42.646;23.642;2023-04-03T07:41:41;9.30;;;4.43;;
56752;SDS011;42627;42.646;23.642;2023-04-03T07:43:42;7.25;;;3.85;;
56752;SDS011;42627;42.646;23.642;2023-04-03T07:45:43;6.45;;;3.78;;
56752;SDS011;42627;42.646;23.642;2023-04-03T07:47:45;7.00;;;3.80;;
56752;SDS011;42627;42.646;23.642;2023-04-03T07:51:56;6.85;;;4.18;;
56752;SDS011;42627;42.646;23.642;2023-04-03T07:53:58;7.80;;;4.13;;
56752;SDS011;42627;42.646;23.642;2023-04-03T07:55:59;5.63;;;3.50;;
56752;SDS011;42627;42.646;23.642;2023-04-03T07:58:02;7.78;;;3.85;;
56752;SDS011;42627;42.646;23.642;2023-04-03T08:00:04;6.57;;;3.70;;
56752;SDS011;42627;42.646;23.642;2023-04-03T08:02:05;7.88;;;3.90;;
56752;SDS011;42627;42.646;23.642;2023-04-03T08:04:06;6.88;;;3.30;;
56752;SDS011;42627;42.646;23.642;2023-04-03T08:06:19;6.97;;;3.55;;
56752;SDS011;42627;42.646;23.642;2023-04-03T08:08:27;6.72;;;4.05;;
56752;SDS011;42627;42.646;23.642;2023-04-03T08:10:35;7.13;;;3.53;;
56752;SDS011;42627;42.646;23.642;2023-04-03T08:12:36;9.32;;;4.07;;
56752;SDS011;42627;42.646;23.642;2023-04-03T08:14:37;7.15;;;3.90;;
56752;SDS011;42627;42.646;23.642;2023-04-03T08:16:38;9.55;;;4.25;;
56752;SDS011;42627;42.646;23.642;2023-04-03T08:18:39;8.55;;;4.13;;
56752;SDS011;42627;42.646;23.642;2023-04-03T08:20:40;8.25;;;4.03;;
56752;SDS011;42627;42.646;23.642;2023-04-03T08:22:41;6.68;;;3.85;;
56752;SDS011;42627;42.646;23.642;2023-04-03T08:24:42;8.10;;;3.88;;
56752;SDS011;42627;42.646;23.642;2023-04-03T08:26:43;6.97;;;4.15;;
56752;SDS011;42627;42.646;23.642;2023-04-03T08:28:44;6.70;;;3.83;;
56752;SDS011;42627;42.646;23.642;2023-04-03T08:30:45;7.45;;;3.38;;
56752;SDS011;42627;42.646;23.642;2023-04-03T08:32:46;6.47;;;3.50;;
56752;SDS011;42627;42.646;23.642;2023-04-03T08:34:47;11.80;;;4.65;;
56752;SDS011;42627;42.646;23.642;2023-04-03T08:36:48;8.85;;;4.40;;
56752;SDS011;42627;42.646;23.642;2023-04-03T08:38:50;8.90;;;4.63;;
56752;SDS011;42627;42.646;23.642;2023-04-03T08:43:26;6.07;;;2.90;;
56752;SDS011;42627;42.646;23.642;2023-04-03T08:45:43;4.82;;;2.58;;
56752;SDS011;42627;42.646;23.642;2023-04-03T08:47:48;5.80;;;3.00;;
56752;SDS011;42627;42.646;23.642;2023-04-03T08:50:04;8.32;;;3.05;;
56752;SDS011;42627;42.646;23.642;2023-04-03T08:52:10;9.27;;;3.53;;
56752;SDS011;42627;42.646;23.642;2023-04-03T08:54:17;9.15;;;3.05;;
56752;SDS011;42627;42.646;23.642;2023-04-03T08:56:25;6.70;;;2.97;;
56752;SDS011;42627;42.646;23.642;2023-04-03T08:58:49;5.97;;;3.03;;
56752;SDS011;42627;42.646;23.642;2023-04-03T09:03:23;6.95;;;3.20;;
56752;SDS011;42627;42.646;23.642;2023-04-03T09:07:36;5.70;;;3.50;;
56752;SDS011;42627;42.646;23.642;2023-04-03T09:09:40;6.68;;;3.28;;
56752;SDS011;42627;42.646;23.642;2023-04-03T09:16:19;4.55;;;2.75;;
56752;SDS011;42627;42.646;23.642;2023-04-03T09:18:23;5.82;;;3.10;;
56752;SDS011;42627;42.646;23.642;2023-04-03T09:22:27;4.85;;;3.17;;
56752;SDS011;42627;42.646;23.642;2023-04-03T09:24:34;5.13;;;2.60;;
56752;SDS011;42627;42.646;23.642;2023-04-03T09:29:15;4.60;;;2.72;;
56752;SDS011;42627;42.646;23.642;2023-04-03T09:31:20;4.57;;;2.70;;
56752;SDS011;42627;42.646;23.642;2023-04-03T09:33:21;5.18;;;2.42;;
56752;SDS011;42627;42.646;23.642;2023-04-03T09:39:52;7.82;;;2.72;;
56752;SDS011;42627;42.646;23.642;2023-04-03T09:41:55;6.65;;;2.90;;
56752;SDS011;42627;42.646;23.642;2023-04-03T09:46:17;6.53;;;3.33;;
56752;SDS011;42627;42.646;23.642;2023-04-03T09:48:25;7.85;;;3.83;;
56752;SDS011;42627;42.646;23.642;2023-04-03T09:50:28;6.70;;;3.50;;
56752;SDS011;42627;42.646;23.642;2023-04-03T09:52:29;5.35;;;2.97;;
56752;SDS011;42627;42.646;23.642;2023-04-03T09:54:35;8.35;;;3.42;;
56752;SDS011;42627;42.646;23.642;2023-04-03T09:56:40;6.47;;;3.25;;
56752;SDS011;42627;42.646;23.642;2023-04-03T09:58:42;5.40;;;3.10;;
56752;SDS011;42627;42.646;23.642;2023-04-03T10:00:44;5.75;;;2.95;;
56752;SDS011;42627;42.646;23.642;2023-04-03T10:02:55;5.63;;;3.28;;
56752;SDS011;42627;42.646;23.642;2023-04-03T10:05:01;5.50;;;3.42;;
56752;SDS011;42627;42.646;23.642;2023-04-03T10:07:02;5.10;;;3.05;;
56752;SDS011;42627;42.646;23.642;2023-04-03T10:11:20;9.35;;;3.92;;
56752;SDS011;42627;42.646;23.642;2023-04-03T10:13:23;9.52;;;3.55;;
56752;SDS011;42627;42.646;23.642;2023-04-03T10:15:24;12.60;;;6.28;;
56752;SDS011;42627;42.646;23.642;2023-04-03T10:19:39;7.90;;;3.25;;
56752;SDS011;42627;42.646;23.642;2023-04-03T10:23:49;7.30;;;3.65;;
56752;SDS011;42627;42.646;23.642;2023-04-03T10:26:08;6.75;;;3.28;;
56752;SDS011;42627;42.646;23.642;2023-04-03T10:34:37;5.53;;;3.00;;
56752;SDS011;42627;42.646;23.642;2023-04-03T10:36:44;4.45;;;2.78;;
56752;SDS011;42627;42.646;23.642;2023-04-03T10:52:25;8.80;;;3.55;;
56752;SDS011;42627;42.646;23.642;2023-04-03T10:54:35;7.25;;;3.67;;
56752;SDS011;42627;42.646;23.642;2023-04-03T10:59:24;7.38;;;3.65;;
56752;SDS011;42627;42.646;23.642;2023-04-03T11:01:11;13.13;;;5.40;;
56752;SDS011;42627;42.646;23.642;2023-04-03T11:03:32;10.73;;;4.70;;
56752;SDS011;42627;42.646;23.642;2023-04-03T11:05:44;10.73;;;5.05;;
56752;SDS011;42627;42.646;23.642;2023-04-03T11:07:47;8.68;;;4.15;;
56752;SDS011;42627;42.646;23.642;2023-04-03T11:09:50;10.93;;;4.80;;
56752;SDS011;42627;42.646;23.642;2023-04-03T11:11:58;24.67;;;10.05;;
56752;SDS011;42627;42.646;23.642;2023-04-03T11:16:29;14.23;;;7.28;;
56752;SDS011;42627;42.646;23.642;2023-04-03T11:20:42;6.97;;;3.85;;
56752;SDS011;42627;42.646;23.642;2023-04-03T11:22:56;8.02;;;3.70;;
56752;SDS011;42627;42.646;23.642;2023-04-03T11:27:37;6.25;;;3.17;;
56752;SDS011;42627;42.646;23.642;2023-04-03T11:36:22;5.22;;;2.97;;
56752;SDS011;42627;42.646;23.642;2023-04-03T11:38:27;6.05;;;3.70;;
56752;SDS011;42627;42.646;23.642;2023-04-03T11:40:33;6.55;;;3.50;;
56752;SDS011;42627;42.646;23.642;2023-04-03T11:42:42;6.70;;;3.92;;
56752;SDS011;42627;42.646;23.642;2023-04-03T11:47:46;5.90;;;3.25;;
56752;SDS011;42627;42.646;23.642;2023-04-03T11:50:00;6.22;;;3.83;;
56752;SDS011;42627;42.646;23.642;2023-04-03T11:52:02;6.53;;;3.53;;
56752;SDS011;42627;42.646;23.642;2023-04-03T11:59:28;8.07;;;4.57;;
56752;SDS011;42627;42.646;23.642;2023-04-03T12:01:48;7.85;;;4.25;;
56752;SDS011;42627;42.646;23.642;2023-04-03T12:08:16;10.20;;;5.30;;
56752;SDS011;42627;42.646;23.642;2023-04-03T12:10:17;9.75;;;4.90;;
56752;SDS011;42627;42.646;23.642;2023-04-03T12:14:28;13.20;;;5.15;;
56752;SDS011;42627;42.646;23.642;2023-04-03T12:18:44;7.75;;;4.32;;
56752;SDS011;42627;42.646;23.642;2023-04-03T12:23:08;10.27;;;5.40;;
56752;SDS011;42627;42.646;23.642;2023-04-03T12:28:16;9.50;;;4.10;;
56752;SDS011;42627;42.646;23.642;2023-04-03T12:30:25;27.42;;;11.23;;
56752;SDS011;42627;42.646;23.642;2023-04-03T12:32:35;8.80;;;4.28;;
56752;SDS011;42627;42.646;23.642;2023-04-03T12:37:00;4.38;;;2.70;;
56752;SDS011;42627;42.646;23.642;2023-04-03T12:41:16;3.20;;;1.73;;
56752;SDS011;42627;42.646;23.642;2023-04-03T12:45:30;2.70;;;1.52;;
56752;SDS011;42627;42.646;23.642;2023-04-03T12:47:38;3.10;;;1.30;;
56752;SDS011;42627;42.646;23.642;2023-04-03T12:49:45;4.47;;;1.42;;
56752;SDS011;42627;42.646;23.642;2023-04-03T12:51:46;1.67;;;1.08;;
56752;SDS011;42627;42.646;23.642;2023-04-03T12:53:48;3.08;;;1.30;;
56752;SDS011;42627;42.646;23.642;2023-04-03T12:55:57;2.13;;;1.50;;
56752;SDS011;42627;42.646;23.642;2023-04-03T12:58:43;3.45;;;2.00;;
56752;SDS011;42627;42.646;23.642;2023-04-03T13:05:21;2.22;;;1.42;;
56752;SDS011;42627;42.646;23.642;2023-04-03T13:07:33;2.20;;;1.50;;
56752;SDS011;42627;42.646;23.642;2023-04-03T13:09:34;3.78;;;1.30;;
56752;SDS011;42627;42.646;23.642;2023-04-03T13:11:36;1.92;;;1.38;;
56752;SDS011;42627;42.646;23.642;2023-04-03T13:13:38;3.90;;;1.90;;
56752;SDS011;42627;42.646;23.642;2023-04-03T13:15:44;4.93;;;2.70;;
56752;SDS011;42627;42.646;23.642;2023-04-03T13:18:01;6.07;;;3.08;;
56752;SDS011;42627;42.646;23.642;2023-04-03T13:20:17;3.80;;;2.65;;
56752;SDS011;42627;42.646;23.642;2023-04-03T13:22:34;3.80;;;2.00;;
56752;SDS011;42627;42.646;23.642;2023-04-03T13:24:41;3.35;;;2.10;;
56752;SDS011;42627;42.646;23.642;2023-04-03T13:26:43;3.17;;;1.95;;
56752;SDS011;42627;42.646;23.642;2023-04-03T13:33:52;2.60;;;1.65;;
56752;SDS011;42627;42.646;23.642;2023-04-03T13:36:03;2.30;;;1.70;;
56752;SDS011;42627;42.646;23.642;2023-04-03T13:40:17;3.55;;;1.92;;
56752;SDS011;42627;42.646;23.642;2023-04-03T13:42:23;6.40;;;3.15;;
56752;SDS011;42627;42.646;23.642;2023-04-03T13:44:28;4.10;;;2.10;;
56752;SDS011;42627;42.646;23.642;2023-04-03T13:46:30;3.20;;;2.03;;
56752;SDS011;42627;42.646;23.642;2023-04-03T13:48:41;3.72;;;2.17;;
56752;SDS011;42627;42.646;23.642;2023-04-03T13:50:50;3.33;;;2.00;;
56752;SDS011;42627;42.646;23.642;2023-04-03T13:52:53;4.70;;;2.53;;
56752;SDS011;42627;42.646;23.642;2023-04-03T13:54:59;2.92;;;1.75;;
56752;SDS011;42627;42.646;23.642;2023-04-03T13:57:01;2.92;;;1.65;;
56752;SDS011;42627;42.646;23.642;2023-04-03T13:59:18;7.15;;;2.60;;
56752;SDS011;42627;42.646;23.642;2023-04-03T14:01:21;8.45;;;3.30;;
56752;SDS011;42627;42.646;23.642;2023-04-03T14:03:41;3.83;;;2.13;;
56752;SDS011;42627;42.646;23.642;2023-04-03T14:05:56;2.42;;;1.77;;
56752;SDS011;42627;42.646;23.642;2023-04-03T14:07:57;3.85;;;2.30;;
56752;SDS011;42627;42.646;23.642;2023-04-03T14:09:58;4.22;;;2.63;;
56752;SDS011;42627;42.646;23.642;2023-04-03T14:12:02;4.32;;;2.30;;
56752;SDS011;42627;42.646;23.642;2023-04-03T14:18:51;3.63;;;2.35;;
56752;SDS011;42627;42.646;23.642;2023-04-03T14:20:52;7.47;;;2.88;;
56752;SDS011;42627;42.646;23.642;2023-04-03T14:22:54;4.47;;;2.75;;
56752;SDS011;42627;42.646;23.642;2023-04-03T14:24:55;7.68;;;3.67;;
56752;SDS011;42627;42.646;23.642;2023-04-03T14:26:57;16.17;;;7.32;;
56752;SDS011;42627;42.646;23.642;2023-04-03T14:28:59;8.30;;;3.92;;
56752;SDS011;42627;42.646;23.642;2023-04-03T14:31:00;5.25;;;3.13;;
56752;SDS011;42627;42.646;23.642;2023-04-03T14:33:06;6.18;;;3.40;;
56752;SDS011;42627;42.646;23.642;2023-04-03T14:35:07;16.15;;;8.70;;